createdAt,value
2023-04-27T00:00:11.261Z,68.14
2023-04-27T00:01:13.638Z,68.81
2023-04-27T00:02:15.685Z,67.96
2023-04-27T00:03:17.616Z,67.28
2023-04-27T00:04:20.683Z,67.61
2023-04-27T00:05:22.432Z,67.75
2023-04-27T00:06:24.309Z,68.06
2023-04-27T00:07:26.516Z,69.71
2023-04-27T00:08:27.898Z,68.24
2023-04-27T00:09:29.399Z,67.60
2023-04-27T00:10:30.918Z,67.79
2023-04-27T00:11:32.314Z,67.81
2023-04-27T00:12:34.011Z,68.81
2023-04-27T00:13:35.575Z,68.24
2023-04-27T00:14:37.021Z,69.42
2023-04-27T00:15:38.479Z,69.87
2023-04-27T00:16:39.917Z,68.17
2023-04-27T00:17:43.124Z,68.12
2023-04-27T00:18:44.593Z,67.77
2023-04-27T00:19:47.420Z,67.05
2023-04-27T00:20:48.951Z,66.72
2023-04-27T00:21:50.572Z,66.86
2023-04-27T00:22:51.980Z,67.32
2023-04-27T00:23:54.359Z,66.90
2023-04-27T00:24:55.863Z,66.67
2023-04-27T00:25:57.313Z,67.15
2023-04-27T00:26:58.758Z,68.03
2023-04-27T00:28:00.212Z,68.34
2023-04-27T00:29:01.658Z,67.01
2023-04-27T00:30:04.284Z,67.81
2023-04-27T00:31:05.901Z,67.15
2023-04-27T00:32:07.713Z,67.27
2023-04-27T00:33:09.258Z,68.53
2023-04-27T00:34:10.862Z,67.87
2023-04-27T00:35:12.435Z,66.99
2023-04-27T00:36:13.881Z,66.87
2023-04-27T00:37:15.298Z,67.84
2023-04-27T00:38:16.742Z,66.92
2023-04-27T00:39:18.177Z,68.26
2023-04-27T00:40:20.713Z,67.90
2023-04-27T00:41:23.019Z,68.62
2023-04-27T00:42:25.135Z,67.83
2023-04-27T00:43:26.560Z,66.99
2023-04-27T00:44:28.364Z,68.86
2023-04-27T00:45:29.859Z,67.18
2023-04-27T00:46:32.760Z,67.57
2023-04-27T00:47:34.887Z,68.78
2023-04-27T00:48:36.486Z,68.84
2023-04-27T00:49:38.292Z,68.63
2023-04-27T00:50:39.733Z,70.25
2023-04-27T00:51:41.322Z,70.25
2023-04-27T00:52:43.654Z,69.69
2023-04-27T00:53:45.106Z,69.38
2023-04-27T00:54:50.900Z,67.90
2023-04-27T00:55:52.401Z,68.36
2023-04-27T00:56:53.842Z,68.81
2023-04-27T00:57:55.362Z,69.22
2023-04-27T00:58:56.973Z,68.50
2023-04-27T01:00:00.426Z,68.97
2023-04-27T01:01:02.110Z,69.68
2023-04-27T01:02:03.834Z,69.68
2023-04-27T01:03:07.124Z,69.31
2023-04-27T01:04:08.876Z,68.94
2023-04-27T01:05:10.705Z,68.18
2023-04-27T01:06:12.157Z,69.49
2023-04-27T01:07:13.790Z,69.54
2023-04-27T01:08:15.606Z,69.92
2023-04-27T01:09:19.710Z,69.61
2023-04-27T01:10:21.156Z,69.58
2023-04-27T01:11:23.434Z,70.25
2023-04-27T01:12:25.109Z,70.06
2023-04-27T01:13:26.520Z,70.94
2023-04-27T01:14:27.957Z,70.33
2023-04-27T01:15:29.566Z,69.16
2023-04-27T01:16:32.689Z,70.12
2023-04-27T01:17:34.270Z,69.99
2023-04-27T01:18:35.695Z,69.75
2023-04-27T01:19:37.213Z,69.72
2023-04-27T01:20:38.937Z,69.97
2023-04-27T01:21:40.819Z,70.64
2023-04-27T01:22:42.946Z,71.68
2023-04-27T01:23:44.383Z,70.89
2023-04-27T01:24:45.914Z,70.61
2023-04-27T01:25:47.334Z,70.71
2023-04-27T01:26:49.663Z,70.60
2023-04-27T01:27:51.254Z,70.13
2023-04-27T01:28:52.671Z,69.46
2023-04-27T01:29:54.096Z,70.60
2023-04-27T01:30:55.615Z,71.05
2023-04-27T01:31:57.412Z,71.53
2023-04-27T01:32:58.933Z,71.44
2023-04-27T01:34:00.404Z,72.70
2023-04-27T01:35:01.861Z,72.14
2023-04-27T01:36:03.658Z,71.35
2023-04-27T01:37:05.078Z,71.47
2023-04-27T01:38:06.651Z,69.81
2023-04-27T01:39:09.837Z,70.43
2023-04-27T01:40:11.735Z,70.28
2023-04-27T01:41:13.263Z,70.63
2023-04-27T01:42:14.663Z,71.08
2023-04-27T01:43:16.159Z,71.34
2023-04-27T01:44:17.573Z,71.56
2023-04-27T01:45:19.023Z,72.39
2023-04-27T01:46:20.617Z,71.22
2023-04-27T01:47:22.035Z,71.29
2023-04-27T01:48:23.442Z,71.54
2023-04-27T01:49:24.841Z,73.45
2023-04-27T01:50:26.290Z,72.32
2023-04-27T01:51:27.719Z,70.82
2023-04-27T01:52:29.207Z,71.21
2023-04-27T01:53:31.001Z,71.16
2023-04-27T01:54:32.423Z,71.35
2023-04-27T01:55:33.821Z,71.08
2023-04-27T01:56:35.262Z,72.80
2023-04-27T01:57:36.674Z,72.77
2023-04-27T01:58:38.175Z,71.13
2023-04-27T01:59:39.619Z,72.16
2023-04-27T02:00:41.048Z,71.20
2023-04-27T02:01:42.559Z,71.66
2023-04-27T02:02:45.279Z,71.08
2023-04-27T02:03:47.076Z,70.05
2023-04-27T02:04:48.720Z,69.92
2023-04-27T02:05:50.390Z,70.05
2023-04-27T02:06:51.977Z,70.96
2023-04-27T02:07:53.573Z,71.67
2023-04-27T02:08:55.053Z,70.18
2023-04-27T02:09:56.463Z,70.20
2023-04-27T02:10:57.936Z,70.96
2023-04-27T02:11:59.388Z,71.14
2023-04-27T02:13:00.802Z,71.20
2023-04-27T02:14:02.299Z,70.66
2023-04-27T02:15:04.172Z,71.07
2023-04-27T02:16:06.095Z,70.60
2023-04-27T02:17:07.508Z,70.35
2023-04-27T02:18:09.116Z,69.97
2023-04-27T02:19:10.695Z,70.03
2023-04-27T02:20:12.449Z,69.65
2023-04-27T02:21:13.928Z,69.29
2023-04-27T02:22:16.187Z,69.61
2023-04-27T02:23:17.597Z,69.75
2023-04-27T02:24:19.041Z,69.67
2023-04-27T02:25:23.273Z,70.29
2023-04-27T02:26:29.279Z,69.61
2023-04-27T02:27:30.931Z,69.48
2023-04-27T02:28:32.926Z,69.66
2023-04-27T02:29:38.760Z,69.87
2023-04-27T02:30:40.786Z,71.33
2023-04-27T02:31:42.311Z,69.73
2023-04-27T02:32:44.117Z,70.73
2023-04-27T02:33:45.599Z,70.16
2023-04-27T02:34:47.297Z,70.83
2023-04-27T02:35:48.717Z,69.71
2023-04-27T02:36:50.159Z,70.16
2023-04-27T02:37:51.605Z,71.21
2023-04-27T02:38:53.088Z,69.91
2023-04-27T02:39:54.702Z,70.45
2023-04-27T02:40:56.209Z,69.92
2023-04-27T02:41:57.611Z,71.26
2023-04-27T02:42:59.045Z,71.85
2023-04-27T02:44:00.610Z,71.46
2023-04-27T02:45:02.207Z,71.46
2023-04-27T02:46:04.620Z,70.79
2023-04-27T02:47:06.174Z,71.97
2023-04-27T02:48:07.708Z,71.02
2023-04-27T02:49:09.201Z,71.26
2023-04-27T02:50:10.759Z,71.15
2023-04-27T02:51:12.165Z,71.50
2023-04-27T02:52:13.579Z,70.88
2023-04-27T02:53:15.409Z,70.46
2023-04-27T02:54:17.031Z,70.91
2023-04-27T02:55:18.512Z,71.62
2023-04-27T02:56:20.636Z,71.62
2023-04-27T02:57:22.020Z,72.30
2023-04-27T02:58:24.008Z,71.63
2023-04-27T02:59:25.333Z,72.14
2023-04-27T03:00:26.969Z,71.10
2023-04-27T03:01:28.980Z,70.82
2023-04-27T03:02:30.456Z,71.40
2023-04-27T03:03:32.146Z,72.24
2023-04-27T03:04:33.778Z,72.47
2023-04-27T03:05:36.371Z,70.95
2023-04-27T03:06:37.811Z,70.93
2023-04-27T03:07:39.262Z,72.49
2023-04-27T03:08:40.924Z,72.67
2023-04-27T03:09:42.299Z,72.54
2023-04-27T03:10:43.753Z,71.98
2023-04-27T03:11:45.260Z,73.14
2023-04-27T03:12:46.690Z,72.56
2023-04-27T03:13:48.182Z,73.09
2023-04-27T03:14:49.583Z,73.57
2023-04-27T03:15:51.157Z,72.49
2023-04-27T03:16:53.236Z,72.00
2023-04-27T03:17:54.866Z,72.90
2023-04-27T03:18:56.285Z,72.11
2023-04-27T03:19:57.742Z,72.05
2023-04-27T03:21:09.063Z,71.32
2023-04-27T03:22:10.460Z,71.85
2023-04-27T03:23:12.086Z,72.79
2023-04-27T03:24:13.523Z,72.72
2023-04-27T03:25:15.496Z,72.69
2023-04-27T03:26:16.924Z,73.66
2023-04-27T03:27:18.324Z,72.15
2023-04-27T03:28:19.790Z,72.65
2023-04-27T03:29:21.191Z,72.83
2023-04-27T03:30:22.659Z,73.42
2023-04-27T03:31:24.180Z,73.36
2023-04-27T03:32:25.921Z,73.04
2023-04-27T03:33:28.534Z,73.39
2023-04-27T03:34:30.476Z,72.29
2023-04-27T03:35:31.898Z,72.70
2023-04-27T03:36:33.328Z,72.54
2023-04-27T03:37:34.810Z,73.14
2023-04-27T03:38:36.419Z,72.73
2023-04-27T03:39:37.873Z,73.22
2023-04-27T03:40:39.556Z,73.07
2023-04-27T03:41:40.994Z,72.39
2023-04-27T03:42:42.501Z,72.43
2023-04-27T03:43:43.920Z,73.11
2023-04-27T03:44:45.439Z,74.19
2023-04-27T03:45:47.371Z,73.16
2023-04-27T03:46:48.796Z,72.41
2023-04-27T03:47:50.511Z,73.10
2023-04-27T03:48:51.962Z,73.47
2023-04-27T03:49:53.431Z,72.96
2023-04-27T03:50:55.242Z,73.86
2023-04-27T03:51:56.856Z,74.76
2023-04-27T03:52:58.312Z,74.24
2023-04-27T03:54:00.174Z,74.14
2023-04-27T03:55:01.586Z,73.61
2023-04-27T03:56:03.594Z,74.54
2023-04-27T03:57:05.124Z,75.41
2023-04-27T03:58:07.053Z,75.56
2023-04-27T03:59:08.469Z,75.00
2023-04-27T04:00:14.530Z,74.59
2023-04-27T04:01:16.537Z,74.04
2023-04-27T04:02:17.991Z,74.41
2023-04-27T04:03:19.707Z,74.55
2023-04-27T04:04:21.599Z,73.80
2023-04-27T04:05:23.416Z,74.75
2023-04-27T04:06:25.055Z,73.08
2023-04-27T04:07:26.545Z,73.11
2023-04-27T04:08:27.943Z,72.70
2023-04-27T04:09:29.364Z,72.40
2023-04-27T04:10:30.850Z,72.87
2023-04-27T04:11:32.252Z,73.56
2023-04-27T04:12:33.878Z,72.17
2023-04-27T04:13:36.043Z,71.94
2023-04-27T04:14:37.464Z,73.23
2023-04-27T04:15:38.959Z,72.88
2023-04-27T04:16:40.355Z,72.33
2023-04-27T04:17:41.889Z,72.34
2023-04-27T04:18:43.342Z,72.73
2023-04-27T04:19:44.886Z,71.81
2023-04-27T04:20:46.270Z,72.50
2023-04-27T04:21:47.720Z,73.18
2023-04-27T04:22:49.166Z,72.96
2023-04-27T04:23:50.604Z,71.18
2023-04-27T04:24:52.344Z,71.79
2023-04-27T04:25:56.884Z,74.61
2023-04-27T04:26:58.588Z,72.65
2023-04-27T04:28:00.042Z,71.57
2023-04-27T04:29:01.640Z,71.11
2023-04-27T04:30:05.124Z,71.28
2023-04-27T04:31:08.281Z,71.86
2023-04-27T04:32:09.748Z,71.65
2023-04-27T04:33:11.185Z,71.36
2023-04-27T04:34:12.839Z,71.79
2023-04-27T04:35:14.305Z,72.34
2023-04-27T04:36:15.782Z,71.66
2023-04-27T04:37:20.203Z,71.17
2023-04-27T04:38:21.610Z,71.96
2023-04-27T04:39:23.387Z,71.49
2023-04-27T04:40:25.332Z,72.76
2023-04-27T04:41:26.849Z,71.71
2023-04-27T04:42:31.143Z,71.75
2023-04-27T04:43:32.798Z,72.26
2023-04-27T04:44:34.280Z,72.72
2023-04-27T04:45:35.694Z,72.70
2023-04-27T04:46:37.365Z,74.12
2023-04-27T04:47:39.580Z,74.54
2023-04-27T04:48:41.374Z,73.76
2023-04-27T04:49:42.817Z,72.12
2023-04-27T04:50:44.213Z,72.29
2023-04-27T04:51:45.678Z,71.49
2023-04-27T04:52:47.093Z,71.70
2023-04-27T04:53:49.136Z,71.44
2023-04-27T04:54:53.586Z,71.90
2023-04-27T04:55:55.064Z,71.10
2023-04-27T04:56:58.244Z,70.48
2023-04-27T04:57:59.642Z,70.82
2023-04-27T04:59:01.392Z,71.19
2023-04-27T05:00:03.944Z,72.40
2023-04-27T05:01:06.873Z,70.76
2023-04-27T05:02:08.404Z,71.29
2023-04-27T05:03:09.892Z,70.58
2023-04-27T05:04:11.946Z,71.27
2023-04-27T05:05:13.605Z,70.48
2023-04-27T05:06:15.043Z,72.04
2023-04-27T05:07:20.915Z,70.21
2023-04-27T05:08:24.892Z,69.78
2023-04-27T05:09:26.274Z,69.89
2023-04-27T05:10:27.712Z,71.44
2023-04-27T05:11:29.126Z,70.94
2023-04-27T05:12:30.914Z,69.36
2023-04-27T05:13:32.368Z,68.96
2023-04-27T05:14:33.813Z,69.96
2023-04-27T05:15:37.270Z,69.47
2023-04-27T05:16:38.757Z,69.26
2023-04-27T05:17:40.284Z,69.83
2023-04-27T05:18:41.890Z,69.50
2023-04-27T05:19:43.620Z,69.77
2023-04-27T05:20:45.233Z,69.65
2023-04-27T05:21:46.771Z,69.23
2023-04-27T05:22:48.196Z,69.08
2023-04-27T05:23:49.857Z,69.46
2023-04-27T05:24:51.857Z,68.60
2023-04-27T05:25:53.471Z,69.29
2023-04-27T05:26:55.073Z,68.51
2023-04-27T05:27:56.513Z,70.02
2023-04-27T05:28:57.950Z,70.46
2023-04-27T05:29:59.342Z,68.66
2023-04-27T05:31:00.770Z,69.46
2023-04-27T05:32:02.213Z,69.42
2023-04-27T05:33:04.786Z,70.07
2023-04-27T05:34:06.295Z,71.74
2023-04-27T05:35:08.036Z,68.79
2023-04-27T05:36:09.630Z,70.12
2023-04-27T05:37:11.528Z,69.09
2023-04-27T05:38:17.336Z,67.87
2023-04-27T05:39:18.791Z,67.47
2023-04-27T05:40:20.588Z,68.25
2023-04-27T05:41:22.125Z,68.32
2023-04-27T05:42:23.582Z,68.58
2023-04-27T05:43:25.605Z,66.71
2023-04-27T05:44:29.273Z,66.30
2023-04-27T05:45:30.890Z,66.04
2023-04-27T05:46:33.100Z,65.93
2023-04-27T05:47:34.624Z,66.90
2023-04-27T05:48:36.115Z,66.93
2023-04-27T05:49:37.536Z,68.20
2023-04-27T05:50:38.947Z,67.23
2023-04-27T05:51:41.259Z,67.04
2023-04-27T05:52:42.687Z,65.34
2023-04-27T05:53:44.137Z,66.25
2023-04-27T05:54:50.270Z,65.43
2023-04-27T05:55:51.688Z,65.71
2023-04-27T05:56:53.199Z,66.20
2023-04-27T05:58:06.666Z,66.74
2023-04-27T05:59:09.904Z,66.36
2023-04-27T06:00:12.630Z,64.61
2023-04-27T06:01:14.297Z,65.21
2023-04-27T06:02:16.649Z,64.36
2023-04-27T06:03:18.383Z,63.45
2023-04-27T06:04:20.041Z,62.53
2023-04-27T06:05:21.918Z,62.24
2023-04-27T06:06:23.360Z,63.17
2023-04-27T06:07:24.860Z,64.06
2023-04-27T06:08:27.294Z,65.73
2023-04-27T06:09:29.998Z,62.73
2023-04-27T06:10:31.413Z,62.56
2023-04-27T06:11:32.788Z,63.35
2023-04-27T06:12:34.264Z,63.84
2023-04-27T06:13:35.724Z,64.10
2023-04-27T06:14:37.553Z,64.60
2023-04-27T06:15:38.989Z,62.80
2023-04-27T06:16:40.998Z,63.14
2023-04-27T06:17:43.957Z,63.71
2023-04-27T06:18:45.586Z,61.62
2023-04-27T06:19:47.036Z,61.59
2023-04-27T06:20:48.457Z,61.72
2023-04-27T06:21:51.225Z,61.92
2023-04-27T06:22:52.658Z,62.15
2023-04-27T06:23:54.057Z,61.11
2023-04-27T06:24:55.489Z,61.95
2023-04-27T06:25:58.630Z,62.08
2023-04-27T06:27:00.032Z,61.99
2023-04-27T06:28:01.580Z,62.30
2023-04-27T06:29:07.749Z,63.06
2023-04-27T06:30:09.673Z,61.82
2023-04-27T06:31:11.121Z,62.41
2023-04-27T06:32:12.534Z,62.69
2023-04-27T06:33:13.924Z,63.14
2023-04-27T06:34:15.387Z,63.78
2023-04-27T06:35:17.182Z,61.40
2023-04-27T06:36:19.420Z,61.53
2023-04-27T06:37:20.922Z,59.41
2023-04-27T06:38:22.362Z,59.76
2023-04-27T06:39:23.787Z,59.97
2023-04-27T06:40:26.309Z,59.61
2023-04-27T06:41:27.802Z,58.21
2023-04-27T06:42:29.302Z,60.38
2023-04-27T06:43:30.865Z,59.23
2023-04-27T06:44:32.406Z,60.19
2023-04-27T06:45:33.837Z,60.07
2023-04-27T06:46:35.594Z,59.15
2023-04-27T06:47:37.054Z,59.97
2023-04-27T06:48:38.486Z,57.64
2023-04-27T06:49:39.950Z,57.67
2023-04-27T06:50:41.344Z,56.96
2023-04-27T06:51:43.138Z,57.57
2023-04-27T06:52:44.584Z,57.65
2023-04-27T06:53:46.063Z,57.54
2023-04-27T06:54:47.635Z,55.34
2023-04-27T06:55:49.436Z,55.05
2023-04-27T06:56:51.023Z,55.23
2023-04-27T06:57:52.458Z,54.82
2023-04-27T06:58:53.846Z,57.70
2023-04-27T06:59:55.265Z,54.54
2023-04-27T07:00:56.774Z,57.32
2023-04-27T07:01:58.289Z,56.38
2023-04-27T07:02:59.954Z,56.47
2023-04-27T07:04:01.567Z,57.53
2023-04-27T07:05:03.387Z,55.81
2023-04-27T07:06:04.941Z,57.26
2023-04-27T07:07:06.413Z,57.07
2023-04-27T07:08:08.825Z,55.71
2023-04-27T07:09:26.196Z,55.19
2023-04-27T07:10:28.325Z,55.61
2023-04-27T07:11:29.709Z,56.82
2023-04-27T07:12:31.233Z,58.10
2023-04-27T07:13:32.931Z,56.09
2023-04-27T07:14:34.386Z,55.55
2023-04-27T07:15:35.830Z,55.35
2023-04-27T07:16:37.374Z,54.50
2023-04-27T07:17:38.897Z,55.66
2023-04-27T07:18:42.752Z,54.28
2023-04-27T07:19:44.826Z,54.42
2023-04-27T07:20:46.213Z,53.53
2023-04-27T07:21:47.853Z,56.48
2023-04-27T07:22:49.404Z,54.77
2023-04-27T07:23:51.050Z,54.45
2023-04-27T07:24:52.515Z,54.32
2023-04-27T07:25:54.189Z,56.86
2023-04-27T07:26:57.673Z,56.41
2023-04-27T07:27:59.675Z,56.23
2023-04-27T07:29:04.254Z,55.96
2023-04-27T07:30:13.144Z,56.38
2023-04-27T07:31:14.714Z,54.93
2023-04-27T07:32:16.431Z,55.43
2023-04-27T07:33:17.988Z,56.22
2023-04-27T07:34:19.449Z,57.08
2023-04-27T07:35:20.980Z,56.73
2023-04-27T07:36:22.539Z,56.45
2023-04-27T07:37:24.196Z,58.31
2023-04-27T07:38:25.845Z,58.25
2023-04-27T07:39:27.680Z,57.32
2023-04-27T07:40:30.788Z,56.05
2023-04-27T07:41:34.494Z,56.29
2023-04-27T07:42:38.625Z,56.29
2023-04-27T07:43:40.331Z,58.25
2023-04-27T07:44:42.520Z,55.04
2023-04-27T07:45:45.655Z,56.16
2023-04-27T07:46:48.893Z,55.06
2023-04-27T07:47:50.584Z,54.23
2023-04-27T07:48:52.229Z,52.96
2023-04-27T07:49:53.637Z,54.63
2023-04-27T07:50:55.189Z,55.51
2023-04-27T07:51:57.350Z,52.66
2023-04-27T07:52:59.496Z,54.06
2023-04-27T07:54:02.425Z,54.33
2023-04-27T07:55:04.534Z,52.35
2023-04-27T07:56:06.531Z,54.36
2023-04-27T07:57:08.948Z,52.95
2023-04-27T07:58:11.229Z,53.14
2023-04-27T07:59:14.916Z,52.28
2023-04-27T08:00:17.379Z,52.46
2023-04-27T08:01:21.333Z,54.63
2023-04-27T08:02:23.142Z,52.40
2023-04-27T08:03:25.005Z,53.22
2023-04-27T08:04:27.124Z,53.54
2023-04-27T08:05:29.200Z,54.19
2023-04-27T08:06:31.324Z,51.76
2023-04-27T08:07:37.138Z,51.78
2023-04-27T08:08:42.554Z,52.85
2023-04-27T08:09:44.024Z,51.09
2023-04-27T08:10:45.752Z,52.18
2023-04-27T08:11:47.340Z,52.68
2023-04-27T08:12:48.867Z,54.15
2023-04-27T08:13:50.515Z,54.05
2023-04-27T08:14:52.662Z,52.87
2023-04-27T08:15:59.216Z,55.46
2023-04-27T08:17:00.982Z,53.73
2023-04-27T08:18:02.569Z,55.90
2023-04-27T08:19:04.012Z,53.02
2023-04-27T08:20:07.129Z,53.59
2023-04-27T08:21:08.651Z,52.34
2023-04-27T08:22:10.171Z,52.40
2023-04-27T08:23:11.576Z,51.17
2023-04-27T08:24:13.004Z,53.62
2023-04-27T08:25:14.883Z,50.65
2023-04-27T08:26:16.566Z,50.85
2023-04-27T08:27:18.008Z,52.07
2023-04-27T08:28:19.424Z,52.90
2023-04-27T08:29:27.877Z,51.65
2023-04-27T08:30:30.137Z,51.25
2023-04-27T08:31:31.669Z,51.07
2023-04-27T08:32:33.136Z,51.95
2023-04-27T08:33:34.537Z,52.22
2023-04-27T08:34:36.006Z,53.81
2023-04-27T08:35:37.504Z,54.74
2023-04-27T08:36:38.920Z,54.60
2023-04-27T08:37:40.464Z,53.04
2023-04-27T08:38:41.937Z,53.27
2023-04-27T08:39:43.350Z,53.19
2023-04-27T08:40:45.403Z,53.14
2023-04-27T08:41:46.826Z,52.11
2023-04-27T08:42:57.649Z,51.29
2023-04-27T08:43:59.809Z,49.34
2023-04-27T08:45:01.322Z,50.74
2023-04-27T08:46:03.282Z,52.52
2023-04-27T08:47:04.881Z,51.15
2023-04-27T08:48:06.443Z,50.39
2023-04-27T08:49:08.215Z,51.17
2023-04-27T08:50:10.301Z,52.68
2023-04-27T08:51:14.242Z,54.31
2023-04-27T08:52:16.764Z,52.59
2023-04-27T08:53:22.299Z,52.01
2023-04-27T08:54:23.761Z,53.19
2023-04-27T08:55:25.350Z,52.45
2023-04-27T08:56:28.517Z,55.20
2023-04-27T08:57:29.952Z,54.38
2023-04-27T08:58:38.328Z,55.10
2023-04-27T08:59:40.543Z,55.35
2023-04-27T09:00:44.084Z,55.17
2023-04-27T09:01:48.251Z,55.83
2023-04-27T09:02:49.932Z,56.40
2023-04-27T09:04:07.594Z,55.50
2023-04-27T09:05:22.358Z,56.60
2023-04-27T09:06:34.672Z,55.83
2023-04-27T09:07:36.203Z,56.62
2023-04-27T09:08:47.718Z,55.30
2023-04-27T09:09:49.485Z,57.05
2023-04-27T09:10:52.529Z,55.95
2023-04-27T09:11:53.966Z,55.26
2023-04-27T09:13:00.297Z,54.23
2023-04-27T09:14:22.621Z,55.66
2023-04-27T09:15:24.309Z,56.32
2023-04-27T09:16:29.209Z,53.15
2023-04-27T09:17:31.248Z,52.47
2023-04-27T09:18:35.352Z,52.67
2023-04-27T09:19:36.917Z,52.07
2023-04-27T09:20:43.531Z,52.12
2023-04-27T09:21:48.121Z,51.85
2023-04-27T09:22:53.546Z,52.35
2023-04-27T09:23:55.933Z,54.64
2023-04-27T09:24:57.330Z,52.28
2023-04-27T09:26:00.659Z,53.57
2023-04-27T09:27:03.197Z,54.98
2023-04-27T09:28:04.717Z,53.65
2023-04-27T09:29:06.131Z,53.21
2023-04-27T09:30:15.233Z,53.97
2023-04-27T09:31:17.034Z,55.14
2023-04-27T09:32:20.939Z,55.01
2023-04-27T09:33:27.522Z,55.81
2023-04-27T09:34:38.688Z,55.22
2023-04-27T09:35:42.041Z,57.20
2023-04-27T09:36:43.753Z,53.90
2023-04-27T09:37:45.263Z,54.78
2023-04-27T09:38:47.408Z,54.43
2023-04-27T09:39:49.896Z,52.17
2023-04-27T09:40:53.540Z,50.90
2023-04-27T09:41:56.141Z,50.76
2023-04-27T09:43:01.513Z,50.81
2023-04-27T09:44:03.698Z,51.24
2023-04-27T09:45:07.462Z,47.77
2023-04-27T09:46:09.159Z,50.12
2023-04-27T09:47:10.727Z,49.40
2023-04-27T09:48:13.708Z,49.47
2023-04-27T09:49:16.119Z,51.65
2023-04-27T09:50:17.650Z,51.59
2023-04-27T09:51:19.087Z,51.23
2023-04-27T09:52:20.492Z,50.70
2023-04-27T09:53:37.144Z,52.62
2023-04-27T09:54:39.887Z,52.94
2023-04-27T09:55:59.213Z,52.17
2023-04-27T09:57:12.058Z,53.22
2023-04-27T09:58:21.224Z,51.48
2023-04-27T09:59:28.310Z,53.40
2023-04-27T10:00:48.921Z,52.71
2023-04-27T10:01:55.350Z,54.95
2023-04-27T10:03:18.591Z,55.31
2023-04-27T10:04:41.762Z,55.31
2023-04-27T10:06:07.522Z,55.92
2023-04-27T10:07:12.806Z,55.87
2023-04-27T10:08:15.056Z,56.88
2023-04-27T10:09:23.424Z,55.51
2023-04-27T10:10:25.470Z,57.42
2023-04-27T10:11:47.814Z,58.26
2023-04-27T10:12:57.650Z,58.01
2023-04-27T10:14:08.112Z,57.74
2023-04-27T10:15:17.370Z,55.18
2023-04-27T10:16:19.542Z,57.33
2023-04-27T10:17:32.331Z,57.40
2023-04-27T10:18:33.866Z,59.13
2023-04-27T10:19:35.311Z,55.84
2023-04-27T10:20:37.969Z,55.68
2023-04-27T10:21:52.285Z,55.77
2023-04-27T10:22:53.701Z,53.53
2023-04-27T10:23:55.158Z,55.04
2023-04-27T10:24:56.932Z,55.05
2023-04-27T10:26:07.498Z,55.14
2023-04-27T10:27:12.199Z,53.97
2023-04-27T10:28:21.217Z,52.66
2023-04-27T10:29:22.739Z,51.94
2023-04-27T10:30:26.590Z,51.54
2023-04-27T10:31:29.445Z,52.97
2023-04-27T10:32:31.114Z,53.42
2023-04-27T10:33:43.514Z,51.26
2023-04-27T10:34:47.429Z,54.55
2023-04-27T10:35:57.215Z,52.48
2023-04-27T10:37:07.216Z,51.55
2023-04-27T10:38:14.829Z,51.85
2023-04-27T10:39:18.418Z,49.84
2023-04-27T10:40:19.978Z,50.43
2023-04-27T10:41:21.514Z,50.30
2023-04-27T10:42:28.657Z,53.38
2023-04-27T10:43:32.297Z,52.13
2023-04-27T10:44:35.373Z,54.77
2023-04-27T10:45:36.986Z,49.61
2023-04-27T10:46:50.446Z,48.18
2023-04-27T10:47:59.049Z,48.98
2023-04-27T10:49:00.455Z,46.98
2023-04-27T10:50:04.116Z,46.09
2023-04-27T10:51:06.377Z,43.55
2023-04-27T10:52:07.913Z,43.03
2023-04-27T10:53:09.398Z,41.56
2023-04-27T10:54:11.658Z,41.75
2023-04-27T10:55:17.630Z,43.61
2023-04-27T10:56:19.097Z,42.00
2023-04-27T10:57:20.591Z,42.92
2023-04-27T10:58:29.869Z,42.48
2023-04-27T10:59:49.880Z,41.25
2023-04-27T11:00:51.567Z,40.20
2023-04-27T11:01:53.060Z,41.58
2023-04-27T11:02:56.399Z,41.75
2023-04-27T11:04:01.989Z,42.06
2023-04-27T11:05:05.940Z,42.76
2023-04-27T11:06:07.519Z,45.42
2023-04-27T11:07:10.136Z,43.03
2023-04-27T11:08:16.999Z,39.41
2023-04-27T11:09:27.788Z,39.88
2023-04-27T11:10:29.222Z,40.09
2023-04-27T11:11:30.736Z,42.00
2023-04-27T11:12:32.651Z,43.80
2023-04-27T11:13:34.084Z,44.40
2023-04-27T11:14:36.824Z,43.88
2023-04-27T11:15:58.949Z,44.84
2023-04-27T11:17:00.354Z,45.40
2023-04-27T11:18:06.013Z,46.75
2023-04-27T11:19:07.552Z,43.48
2023-04-27T11:20:09.526Z,45.37
2023-04-27T11:21:15.245Z,46.09
2023-04-27T11:22:19.525Z,48.73
2023-04-27T11:23:25.423Z,46.92
2023-04-27T11:24:27.056Z,46.36
2023-04-27T11:25:29.837Z,46.05
2023-04-27T11:26:31.275Z,46.70
2023-04-27T11:27:40.582Z,46.67
2023-04-27T11:28:43.210Z,46.98
2023-04-27T11:29:44.942Z,48.48
2023-04-27T11:30:46.453Z,48.03
2023-04-27T11:31:51.270Z,48.32
2023-04-27T11:32:53.664Z,43.96
2023-04-27T11:33:56.021Z,46.69
2023-04-27T11:34:59.622Z,41.82
2023-04-27T11:36:01.288Z,42.27
2023-04-27T11:37:18.010Z,41.97
2023-04-27T11:38:21.699Z,41.45
2023-04-27T11:39:23.857Z,42.24
2023-04-27T11:40:27.080Z,39.97
2023-04-27T11:41:35.868Z,36.45
2023-04-27T11:42:37.298Z,38.79
2023-04-27T11:43:43.223Z,37.81
2023-04-27T11:45:16.769Z,36.09
2023-04-27T11:46:22.211Z,40.46
2023-04-27T11:47:25.733Z,39.54
2023-04-27T11:48:27.675Z,38.12
2023-04-27T11:49:29.084Z,40.06
2023-04-27T11:50:30.621Z,41.38
2023-04-27T11:51:33.421Z,40.16
2023-04-27T11:52:36.355Z,40.50
2023-04-27T11:53:42.291Z,42.56
2023-04-27T11:54:56.399Z,41.25
2023-04-27T11:56:01.668Z,41.24
2023-04-27T11:57:07.096Z,40.73
2023-04-27T11:58:15.996Z,39.96
2023-04-27T11:59:19.460Z,43.15
2023-04-27T12:00:21.273Z,41.91
2023-04-27T12:01:34.801Z,38.96
2023-04-27T12:02:39.152Z,42.65
2023-04-27T12:03:41.073Z,38.63
2023-04-27T12:04:43.003Z,39.27
2023-04-27T12:05:52.153Z,41.23
2023-04-27T12:06:53.690Z,40.09
2023-04-27T12:07:55.069Z,41.11
2023-04-27T12:08:57.083Z,41.39
2023-04-27T12:10:00.208Z,40.71
2023-04-27T12:11:02.381Z,38.96
2023-04-27T12:12:04.177Z,39.44
2023-04-27T12:13:05.635Z,40.83
2023-04-27T12:14:07.981Z,41.05
2023-04-27T12:15:09.982Z,41.23
2023-04-27T12:16:11.759Z,42.03
2023-04-27T12:17:13.509Z,40.58
2023-04-27T12:18:15.122Z,42.98
2023-04-27T12:19:16.846Z,41.25
2023-04-27T12:20:18.413Z,41.81
2023-04-27T12:21:20.298Z,40.88
2023-04-27T12:22:22.253Z,39.44
2023-04-27T12:23:23.541Z,38.87
2023-04-27T12:24:25.096Z,40.83
2023-04-27T12:25:26.786Z,40.03
2023-04-27T12:26:29.155Z,39.24
2023-04-27T12:27:32.178Z,40.70
2023-04-27T12:28:33.537Z,38.17
2023-04-27T12:29:35.032Z,37.16
2023-04-27T12:30:36.528Z,37.32
2023-04-27T12:31:38.201Z,39.27
2023-04-27T12:32:39.919Z,40.40
2023-04-27T12:33:41.407Z,41.63
2023-04-27T12:34:42.898Z,39.09
2023-04-27T12:35:44.315Z,36.39
2023-04-27T12:36:45.982Z,36.22
2023-04-27T12:37:48.326Z,37.38
2023-04-27T12:38:49.832Z,36.73
2023-04-27T12:39:51.253Z,38.14
2023-04-27T12:40:52.738Z,36.47
2023-04-27T12:41:54.828Z,38.88
2023-04-27T12:42:57.917Z,37.06
2023-04-27T12:44:00.495Z,37.42
2023-04-27T12:45:02.185Z,36.84
2023-04-27T12:46:04.133Z,39.48
2023-04-27T12:47:05.623Z,37.41
2023-04-27T12:48:07.475Z,37.23
2023-04-27T12:49:09.455Z,37.37
2023-04-27T12:50:11.002Z,37.55
2023-04-27T12:51:13.321Z,37.15
2023-04-27T12:52:14.752Z,35.64
2023-04-27T12:53:16.260Z,34.83
2023-04-27T12:54:17.747Z,33.88
2023-04-27T12:55:32.027Z,34.46
2023-04-27T12:56:35.423Z,32.24
2023-04-27T12:57:36.848Z,33.23
2023-04-27T12:58:38.352Z,34.08
2023-04-27T12:59:39.866Z,35.63
2023-04-27T13:00:41.803Z,34.71
2023-04-27T13:01:43.141Z,35.33
2023-04-27T13:02:46.193Z,35.59
2023-04-27T13:03:48.255Z,38.47
2023-04-27T13:04:49.866Z,36.27
2023-04-27T13:05:51.575Z,37.85
2023-04-27T13:06:53.026Z,38.71
2023-04-27T13:07:54.463Z,37.92
2023-04-27T13:08:56.381Z,35.88
2023-04-27T13:09:57.693Z,38.48
2023-04-27T13:10:59.136Z,37.27
2023-04-27T13:12:01.670Z,37.89
2023-04-27T13:13:03.486Z,36.42
2023-04-27T13:14:05.438Z,35.55
2023-04-27T13:15:07.800Z,35.81
2023-04-27T13:16:09.330Z,35.59
2023-04-27T13:17:10.794Z,35.83
2023-04-27T13:18:12.294Z,35.34
2023-04-27T13:19:13.878Z,35.87
2023-04-27T13:20:15.485Z,36.94
2023-04-27T13:21:17.359Z,39.90
2023-04-27T13:22:18.893Z,37.23
2023-04-27T13:23:20.279Z,37.56
2023-04-27T13:24:22.277Z,38.54
2023-04-27T13:25:23.797Z,36.84
2023-04-27T13:26:25.302Z,35.14
2023-04-27T13:27:28.428Z,38.42
2023-04-27T13:28:29.855Z,37.64